sensor_id;sensor_type;location;lat;lon;timestamp;temperature;humidity
13591;DHT22;6866;50.778;7.206;2023-05-07T00:01:49;15.00;99.90
13591;DHT22;6866;50.778;7.206;2023-05-07T00:04:15;15.00;99.90
13591;DHT22;6866;50.778;7.206;2023-05-07T00:06:40;15.00;99.90
13591;DHT22;6866;50.778;7.206;2023-05-07T00:09:06;15.10;99.90
13591;DHT22;6866;50.778;7.206;2023-05-07T00:11:33;15.10;99.90
13591;DHT22;6866;50.778;7.206;2023-05-07T00:13:58;15.00;99.90
13591;DHT22;6866;50.778;7.206;2023-05-07T00:16:24;15.10;99.90
13591;DHT22;6866;50.778;7.206;2023-05-07T00:18:50;15.10;99.90
13591;DHT22;6866;50.778;7.206;2023-05-07T00:21:15;15.10;99.90
13591;DHT22;6866;50.778;7.206;2023-05-07T00:23:41;15.10;99.90
13591;DHT22;6866;50.778;7.206;2023-05-07T00:26:07;15.10;99.90
13591;DHT22;6866;50.778;7.206;2023-05-07T00:28:32;15.10;99.90
13591;DHT22;6866;50.778;7.206;2023-05-07T00:30:58;14.90;99.90
13591;DHT22;6866;50.778;7.206;2023-05-07T00:33:23;14.90;99.90
13591;DHT22;6866;50.778;7.206;2023-05-07T00:35:49;14.80;99.90
13591;DHT22;6866;50.778;7.206;2023-05-07T00:38:14;14.60;99.90
13591;DHT22;6866;50.778;7.206;2023-05-07T00:40:40;14.60;99.90
13591;DHT22;6866;50.778;7.206;2023-05-07T00:43:06;14.60;99.90
13591;DHT22;6866;50.778;7.206;2023-05-07T00:45:32;14.60;99.90
13591;DHT22;6866;50.778;7.206;2023-05-07T00:48:00;14.60;99.90
13591;DHT22;6866;50.778;7.206;2023-05-07T00:50:27;14.60;99.90
13591;DHT22;6866;50.778;7.206;2023-05-07T00:52:53;14.70;99.90
13591;DHT22;6866;50.778;7.206;2023-05-07T00:55:19;14.80;99.90
13591;DHT22;6866;50.778;7.206;2023-05-07T00:57:45;14.70;99.90
13591;DHT22;6866;50.778;7.206;2023-05-07T01:05:23;14.70;99.90
13591;DHT22;6866;50.778;7.206;2023-05-07T01:07:50;14.70;99.90
13591;DHT22;6866;50.778;7.206;2023-05-07T01:10:17;14.70;99.90
13591;DHT22;6866;50.778;7.206;2023-05-07T01:12:44;14.70;99.90
13591;DHT22;6866;50.778;7.206;2023-05-07T01:15:10;14.60;99.90
13591;DHT22;6866;50.778;7.206;2023-05-07T01:17:36;14.60;99.90
13591;DHT22;6866;50.778;7.206;2023-05-07T01:20:05;14.70;99.90
13591;DHT22;6866;50.778;7.206;2023-05-07T01:22:35;14.80;99.90
13591;DHT22;6866;50.778;7.206;2023-05-07T01:25:05;14.70;99.90
13591;DHT22;6866;50.778;7.206;2023-05-07T01:27:32;14.70;99.90
13591;DHT22;6866;50.778;7.206;2023-05-07T01:29:59;14.80;99.90
13591;DHT22;6866;50.778;7.206;2023-05-07T01:32:58;14.80;99.90
13591;DHT22;6866;50.778;7.206;2023-05-07T01:35:30;14.80;99.90
13591;DHT22;6866;50.778;7.206;2023-05-07T01:37:56;14.80;99.90
13591;DHT22;6866;50.778;7.206;2023-05-07T01:40:23;14.90;99.90
13591;DHT22;6866;50.778;7.206;2023-05-07T01:42:50;14.90;99.90
13591;DHT22;6866;50.778;7.206;2023-05-07T01:45:16;14.90;99.90
13591;DHT22;6866;50.778;7.206;2023-05-07T01:47:42;14.80;99.90
13591;DHT22;6866;50.778;7.206;2023-05-07T01:50:09;14.80;99.90
13591;DHT22;6866;50.778;7.206;2023-05-07T01:52:36;14.80;99.90
13591;DHT22;6866;50.778;7.206;2023-05-07T01:55:03;14.80;99.90
13591;DHT22;6866;50.778;7.206;2023-05-07T01:57:28;14.80;99.90
13591;DHT22;6866;50.778;7.206;2023-05-07T01:59:54;14.90;99.90
13591;DHT22;6866;50.778;7.206;2023-05-07T02:02:19;14.80;99.90
13591;DHT22;6866;50.778;7.206;2023-05-07T02:04:45;14.60;99.90
13591;DHT22;6866;50.778;7.206;2023-05-07T02:07:11;14.50;99.90
13591;DHT22;6866;50.778;7.206;2023-05-07T02:09:37;14.50;99.90
13591;DHT22;6866;50.778;7.206;2023-05-07T02:12:03;14.50;99.90
13591;DHT22;6866;50.778;7.206;2023-05-07T02:14:29;14.50;99.90
13591;DHT22;6866;50.778;7.206;2023-05-07T02:16:54;14.60;99.90
13591;DHT22;6866;50.778;7.206;2023-05-07T02:19:20;14.60;99.90
13591;DHT22;6866;50.778;7.206;2023-05-07T02:21:46;14.60;99.90
13591;DHT22;6866;50.778;7.206;2023-05-07T02:24:12;14.60;99.90
13591;DHT22;6866;50.778;7.206;2023-05-07T02:26:39;14.60;99.90
13591;DHT22;6866;50.778;7.206;2023-05-07T02:29:04;14.50;99.90
13591;DHT22;6866;50.778;7.206;2023-05-07T02:31:30;14.60;99.90
13591;DHT22;6866;50.778;7.206;2023-05-07T02:33:56;14.60;99.90
13591;DHT22;6866;50.778;7.206;2023-05-07T02:36:21;14.60;99.90
13591;DHT22;6866;50.778;7.206;2023-05-07T02:38:47;14.60;99.90
13591;DHT22;6866;50.778;7.206;2023-05-07T02:41:12;14.60;99.90
13591;DHT22;6866;50.778;7.206;2023-05-07T02:43:38;14.60;99.90
13591;DHT22;6866;50.778;7.206;2023-05-07T02:46:04;14.50;99.90
13591;DHT22;6866;50.778;7.206;2023-05-07T02:48:31;14.40;99.90
13591;DHT22;6866;50.778;7.206;2023-05-07T02:50:57;14.50;99.90
13591;DHT22;6866;50.778;7.206;2023-05-07T02:53:23;14.60;99.90
13591;DHT22;6866;50.778;7.206;2023-05-07T02:55:51;14.60;99.90
13591;DHT22;6866;50.778;7.206;2023-05-07T02:58:17;14.50;99.90
13591;DHT22;6866;50.778;7.206;2023-05-07T03:00:42;14.50;99.90
13591;DHT22;6866;50.778;7.206;2023-05-07T03:03:08;14.50;99.90
13591;DHT22;6866;50.778;7.206;2023-05-07T03:05:33;14.50;99.90
13591;DHT22;6866;50.778;7.206;2023-05-07T03:07:59;14.50;99.90
13591;DHT22;6866;50.778;7.206;2023-05-07T03:10:24;14.40;99.90
13591;DHT22;6866;50.778;7.206;2023-05-07T03:12:50;14.40;99.90
13591;DHT22;6866;50.778;7.206;2023-05-07T03:15:16;14.50;99.90
13591;DHT22;6866;50.778;7.206;2023-05-07T03:17:42;14.40;99.90
13591;DHT22;6866;50.778;7.206;2023-05-07T03:20:08;14.40;99.90
13591;DHT22;6866;50.778;7.206;2023-05-07T03:22:34;14.40;99.90
13591;DHT22;6866;50.778;7.206;2023-05-07T03:25:00;14.30;99.90
13591;DHT22;6866;50.778;7.206;2023-05-07T03:27:25;14.30;99.90
13591;DHT22;6866;50.778;7.206;2023-05-07T03:29:51;14.40;99.90
13591;DHT22;6866;50.778;7.206;2023-05-07T03:32:16;14.50;99.90
13591;DHT22;6866;50.778;7.206;2023-05-07T03:34:42;14.40;99.90
13591;DHT22;6866;50.778;7.206;2023-05-07T03:37:07;14.30;99.90
13591;DHT22;6866;50.778;7.206;2023-05-07T03:39:33;14.30;99.90
13591;DHT22;6866;50.778;7.206;2023-05-07T03:41:58;14.40;99.90
13591;DHT22;6866;50.778;7.206;2023-05-07T03:44:24;14.50;99.90
13591;DHT22;6866;50.778;7.206;2023-05-07T03:46:50;14.40;99.90
13591;DHT22;6866;50.778;7.206;2023-05-07T03:49:15;14.40;99.90
13591;DHT22;6866;50.778;7.206;2023-05-07T03:51:41;14.30;99.90
13591;DHT22;6866;50.778;7.206;2023-05-07T03:54:07;14.40;99.90
13591;DHT22;6866;50.778;7.206;2023-05-07T03:56:33;14.30;99.90
13591;DHT22;6866;50.778;7.206;2023-05-07T03:58:59;14.30;99.90
13591;DHT22;6866;50.778;7.206;2023-05-07T04:01:25;14.40;99.90
13591;DHT22;6866;50.778;7.206;2023-05-07T04:03:50;14.40;99.90
13591;DHT22;6866;50.778;7.206;2023-05-07T04:06:16;14.40;99.90
13591;DHT22;6866;50.778;7.206;2023-05-07T04:08:44;14.30;99.90
13591;DHT22;6866;50.778;7.206;2023-05-07T04:11:10;14.30;99.90
13591;DHT22;6866;50.778;7.206;2023-05-07T04:13:35;14.40;99.90
13591;DHT22;6866;50.778;7.206;2023-05-07T04:16:02;14.40;99.90
13591;DHT22;6866;50.778;7.206;2023-05-07T04:18:28;14.30;99.90
13591;DHT22;6866;50.778;7.206;2023-05-07T04:20:53;14.40;99.90
13591;DHT22;6866;50.778;7.206;2023-05-07T04:23:19;14.40;99.90
13591;DHT22;6866;50.778;7.206;2023-05-07T04:25:45;14.40;99.90
13591;DHT22;6866;50.778;7.206;2023-05-07T04:28:11;14.50;99.90
13591;DHT22;6866;50.778;7.206;2023-05-07T04:30:37;14.40;99.90
13591;DHT22;6866;50.778;7.206;2023-05-07T04:33:02;14.40;99.90
13591;DHT22;6866;50.778;7.206;2023-05-07T04:35:28;14.40;99.90
13591;DHT22;6866;50.778;7.206;2023-05-07T04:37:53;14.20;99.90
13591;DHT22;6866;50.778;7.206;2023-05-07T04:40:19;14.30;99.90
13591;DHT22;6866;50.778;7.206;2023-05-07T04:42:45;14.40;99.90
13591;DHT22;6866;50.778;7.206;2023-05-07T04:45:10;14.50;99.90
13591;DHT22;6866;50.778;7.206;2023-05-07T04:47:38;14.40;99.90
13591;DHT22;6866;50.778;7.206;2023-05-07T04:50:04;14.50;99.90
13591;DHT22;6866;50.778;7.206;2023-05-07T04:52:29;14.50;99.90
13591;DHT22;6866;50.778;7.206;2023-05-07T04:54:55;14.40;99.90
13591;DHT22;6866;50.778;7.206;2023-05-07T04:57:21;14.30;99.90
13591;DHT22;6866;50.778;7.206;2023-05-07T04:59:46;14.30;99.90
13591;DHT22;6866;50.778;7.206;2023-05-07T05:02:12;14.30;99.90
13591;DHT22;6866;50.778;7.206;2023-05-07T05:04:37;14.30;99.90
13591;DHT22;6866;50.778;7.206;2023-05-07T05:07:03;14.30;99.90
13591;DHT22;6866;50.778;7.206;2023-05-07T05:09:29;14.30;99.90
13591;DHT22;6866;50.778;7.206;2023-05-07T05:11:55;14.40;99.90
13591;DHT22;6866;50.778;7.206;2023-05-07T05:14:21;14.50;99.90
13591;DHT22;6866;50.778;7.206;2023-05-07T05:16:46;14.50;99.90
13591;DHT22;6866;50.778;7.206;2023-05-07T05:19:12;14.50;99.90
13591;DHT22;6866;50.778;7.206;2023-05-07T05:21:37;14.60;99.90
13591;DHT22;6866;50.778;7.206;2023-05-07T05:24:03;14.70;99.90
13591;DHT22;6866;50.778;7.206;2023-05-07T05:26:28;14.80;99.90
13591;DHT22;6866;50.778;7.206;2023-05-07T05:28:54;14.90;99.90
13591;DHT22;6866;50.778;7.206;2023-05-07T05:31:20;15.10;99.90
13591;DHT22;6866;50.778;7.206;2023-05-07T05:33:45;15.20;99.90
13591;DHT22;6866;50.778;7.206;2023-05-07T05:36:11;15.30;99.90
13591;DHT22;6866;50.778;7.206;2023-05-07T05:38:38;15.40;99.90
13591;DHT22;6866;50.778;7.206;2023-05-07T05:41:04;15.60;99.90
13591;DHT22;6866;50.778;7.206;2023-05-07T05:43:30;15.60;99.90
13591;DHT22;6866;50.778;7.206;2023-05-07T05:45:56;15.60;99.90
13591;DHT22;6866;50.778;7.206;2023-05-07T05:48:22;15.50;99.90
13591;DHT22;6866;50.778;7.206;2023-05-07T05:50:48;15.50;99.90
13591;DHT22;6866;50.778;7.206;2023-05-07T05:53:13;15.40;99.90
13591;DHT22;6866;50.778;7.206;2023-05-07T05:55:39;15.50;99.90
13591;DHT22;6866;50.778;7.206;2023-05-07T05:58:04;15.60;99.90
13591;DHT22;6866;50.778;7.206;2023-05-07T06:00:30;15.50;99.90
13591;DHT22;6866;50.778;7.206;2023-05-07T06:02:56;15.60;99.90
13591;DHT22;6866;50.778;7.206;2023-05-07T06:05:21;15.70;99.90
13591;DHT22;6866;50.778;7.206;2023-05-07T06:07:47;15.80;99.90
13591;DHT22;6866;50.778;7.206;2023-05-07T06:10:12;15.80;99.90
13591;DHT22;6866;50.778;7.206;2023-05-07T06:12:38;15.90;99.90
13591;DHT22;6866;50.778;7.206;2023-05-07T06:15:04;16.10;99.90
13591;DHT22;6866;50.778;7.206;2023-05-07T06:17:29;16.40;99.90
13591;DHT22;6866;50.778;7.206;2023-05-07T06:19:55;16.50;99.90
13591;DHT22;6866;50.778;7.206;2023-05-07T06:22:21;16.30;99.90
13591;DHT22;6866;50.778;7.206;2023-05-07T06:24:47;16.50;99.90
13591;DHT22;6866;50.778;7.206;2023-05-07T06:27:12;16.70;99.90
13591;DHT22;6866;50.778;7.206;2023-05-07T06:29:38;16.70;99.90
13591;DHT22;6866;50.778;7.206;2023-05-07T06:32:10;16.60;99.90
13591;DHT22;6866;50.778;7.206;2023-05-07T06:34:37;16.50;99.90
13591;DHT22;6866;50.778;7.206;2023-05-07T06:37:03;16.70;99.90
13591;DHT22;6866;50.778;7.206;2023-05-07T06:39:29;16.50;99.90
13591;DHT22;6866;50.778;7.206;2023-05-07T06:41:54;16.70;99.90
13591;DHT22;6866;50.778;7.206;2023-05-07T06:44:20;17.00;99.90
13591;DHT22;6866;50.778;7.206;2023-05-07T06:46:45;16.70;99.90
13591;DHT22;6866;50.778;7.206;2023-05-07T06:49:14;16.60;99.90
13591;DHT22;6866;50.778;7.206;2023-05-07T06:51:40;16.50;99.90
13591;DHT22;6866;50.778;7.206;2023-05-07T06:54:06;16.60;99.90
13591;DHT22;6866;50.778;7.206;2023-05-07T06:56:32;16.80;99.90
13591;DHT22;6866;50.778;7.206;2023-05-07T06:58:59;16.90;99.90
13591;DHT22;6866;50.778;7.206;2023-05-07T07:01:24;16.90;99.90
13591;DHT22;6866;50.778;7.206;2023-05-07T07:03:50;17.00;99.90
13591;DHT22;6866;50.778;7.206;2023-05-07T07:06:16;17.10;99.90
13591;DHT22;6866;50.778;7.206;2023-05-07T07:08:42;17.30;99.90
13591;DHT22;6866;50.778;7.206;2023-05-07T07:11:09;17.40;99.90
13591;DHT22;6866;50.778;7.206;2023-05-07T07:13:35;17.50;99.90
13591;DHT22;6866;50.778;7.206;2023-05-07T07:16:01;17.80;99.90
13591;DHT22;6866;50.778;7.206;2023-05-07T07:18:26;18.10;99.90
13591;DHT22;6866;50.778;7.206;2023-05-07T07:20:52;18.50;99.90
13591;DHT22;6866;50.778;7.206;2023-05-07T07:23:18;18.60;99.90
13591;DHT22;6866;50.778;7.206;2023-05-07T07:25:44;18.70;99.90
13591;DHT22;6866;50.778;7.206;2023-05-07T07:28:09;18.80;99.90
13591;DHT22;6866;50.778;7.206;2023-05-07T07:30:36;18.80;99.90
13591;DHT22;6866;50.778;7.206;2023-05-07T07:33:01;19.00;99.90
13591;DHT22;6866;50.778;7.206;2023-05-07T07:35:31;18.80;99.90
13591;DHT22;6866;50.778;7.206;2023-05-07T07:37:57;18.60;99.90
13591;DHT22;6866;50.778;7.206;2023-05-07T07:40:23;18.60;99.90
13591;DHT22;6866;50.778;7.206;2023-05-07T07:42:48;18.70;99.90
13591;DHT22;6866;50.778;7.206;2023-05-07T07:45:14;18.50;99.90
13591;DHT22;6866;50.778;7.206;2023-05-07T07:47:40;18.50;99.90
13591;DHT22;6866;50.778;7.206;2023-05-07T07:50:06;18.30;99.90
13591;DHT22;6866;50.778;7.206;2023-05-07T07:52:32;18.20;99.90
13591;DHT22;6866;50.778;7.206;2023-05-07T07:54:58;18.20;99.90
13591;DHT22;6866;50.778;7.206;2023-05-07T07:57:23;18.40;99.90
13591;DHT22;6866;50.778;7.206;2023-05-07T07:59:49;18.40;99.90
13591;DHT22;6866;50.778;7.206;2023-05-07T08:02:16;18.50;99.90
13591;DHT22;6866;50.778;7.206;2023-05-07T08:04:42;18.60;99.90
13591;DHT22;6866;50.778;7.206;2023-05-07T08:07:12;18.50;99.90
13591;DHT22;6866;50.778;7.206;2023-05-07T08:09:38;18.50;99.90
13591;DHT22;6866;50.778;7.206;2023-05-07T08:12:04;18.60;99.90
13591;DHT22;6866;50.778;7.206;2023-05-07T08:14:30;18.70;99.90
13591;DHT22;6866;50.778;7.206;2023-05-07T08:16:56;18.70;99.90
13591;DHT22;6866;50.778;7.206;2023-05-07T08:19:21;18.60;99.90
13591;DHT22;6866;50.778;7.206;2023-05-07T08:21:48;18.70;99.90
13591;DHT22;6866;50.778;7.206;2023-05-07T08:24:14;18.80;99.90
13591;DHT22;6866;50.778;7.206;2023-05-07T08:26:40;18.80;99.90
13591;DHT22;6866;50.778;7.206;2023-05-07T08:29:06;19.10;99.90
13591;DHT22;6866;50.778;7.206;2023-05-07T08:31:31;19.30;99.90
13591;DHT22;6866;50.778;7.206;2023-05-07T08:33:58;19.50;99.90
13591;DHT22;6866;50.778;7.206;2023-05-07T08:36:24;19.70;99.90
13591;DHT22;6866;50.778;7.206;2023-05-07T08:38:50;19.70;99.20
13591;DHT22;6866;50.778;7.206;2023-05-07T08:41:15;19.50;99.30
13591;DHT22;6866;50.778;7.206;2023-05-07T08:43:41;19.90;98.30
13591;DHT22;6866;50.778;7.206;2023-05-07T08:46:09;20.40;96.40
13591;DHT22;6866;50.778;7.206;2023-05-07T08:48:36;20.90;92.50
13591;DHT22;6866;50.778;7.206;2023-05-07T08:51:02;21.40;90.80
13591;DHT22;6866;50.778;7.206;2023-05-07T08:53:28;21.40;90.60
13591;DHT22;6866;50.778;7.206;2023-05-07T08:55:54;21.40;89.40
13591;DHT22;6866;50.778;7.206;2023-05-07T08:58:20;21.50;89.80
13591;DHT22;6866;50.778;7.206;2023-05-07T09:00:46;21.90;84.70
13591;DHT22;6866;50.778;7.206;2023-05-07T09:03:12;21.60;83.90
13591;DHT22;6866;50.778;7.206;2023-05-07T09:05:39;22.30;82.70
13591;DHT22;6866;50.778;7.206;2023-05-07T09:08:07;22.70;78.20
13591;DHT22;6866;50.778;7.206;2023-05-07T09:10:34;22.00;77.10
13591;DHT22;6866;50.778;7.206;2023-05-07T09:13:00;21.70;81.00
13591;DHT22;6866;50.778;7.206;2023-05-07T09:15:27;21.50;86.50
13591;DHT22;6866;50.778;7.206;2023-05-07T09:17:53;21.20;84.60
13591;DHT22;6866;50.778;7.206;2023-05-07T09:20:18;21.60;82.60
13591;DHT22;6866;50.778;7.206;2023-05-07T09:22:44;21.60;83.20
13591;DHT22;6866;50.778;7.206;2023-05-07T09:25:10;21.80;82.10
13591;DHT22;6866;50.778;7.206;2023-05-07T09:27:36;22.00;79.30
13591;DHT22;6866;50.778;7.206;2023-05-07T09:30:08;22.30;79.00
13591;DHT22;6866;50.778;7.206;2023-05-07T09:32:35;22.40;77.30
13591;DHT22;6866;50.778;7.206;2023-05-07T09:35:03;22.70;74.10
13591;DHT22;6866;50.778;7.206;2023-05-07T09:37:30;22.70;73.80
13591;DHT22;6866;50.778;7.206;2023-05-07T09:39:56;22.80;73.70
13591;DHT22;6866;50.778;7.206;2023-05-07T09:42:25;22.50;74.60
13591;DHT22;6866;50.778;7.206;2023-05-07T09:44:52;22.50;74.70
13591;DHT22;6866;50.778;7.206;2023-05-07T09:47:24;22.40;76.20
13591;DHT22;6866;50.778;7.206;2023-05-07T09:49:50;22.50;76.80
13591;DHT22;6866;50.778;7.206;2023-05-07T09:52:20;22.00;76.30
13591;DHT22;6866;50.778;7.206;2023-05-07T09:54:47;22.10;80.00
13591;DHT22;6866;50.778;7.206;2023-05-07T09:57:15;22.00;79.40
13591;DHT22;6866;50.778;7.206;2023-05-07T09:59:43;22.30;79.70
13591;DHT22;6866;50.778;7.206;2023-05-07T10:02:09;22.40;76.90
13591;DHT22;6866;50.778;7.206;2023-05-07T10:04:35;22.30;75.70
13591;DHT22;6866;50.778;7.206;2023-05-07T10:07:03;22.20;76.40
13591;DHT22;6866;50.778;7.206;2023-05-07T10:09:30;22.40;75.10
13591;DHT22;6866;50.778;7.206;2023-05-07T10:11:56;22.20;76.00
13591;DHT22;6866;50.778;7.206;2023-05-07T10:14:22;22.50;75.70
13591;DHT22;6866;50.778;7.206;2023-05-07T10:16:49;22.90;75.30
13591;DHT22;6866;50.778;7.206;2023-05-07T10:19:14;22.90;75.80
13591;DHT22;6866;50.778;7.206;2023-05-07T10:21:46;22.90;73.30
13591;DHT22;6866;50.778;7.206;2023-05-07T10:24:20;23.00;71.80
13591;DHT22;6866;50.778;7.206;2023-05-07T10:26:49;23.00;71.00
13591;DHT22;6866;50.778;7.206;2023-05-07T10:29:49;23.20;70.20
13591;DHT22;6866;50.778;7.206;2023-05-07T10:32:47;23.30;72.10
13591;DHT22;6866;50.778;7.206;2023-05-07T10:35:19;23.50;70.30
13591;DHT22;6866;50.778;7.206;2023-05-07T10:37:46;23.40;67.50
13591;DHT22;6866;50.778;7.206;2023-05-07T10:40:12;23.90;67.30
13591;DHT22;6866;50.778;7.206;2023-05-07T10:42:38;24.10;66.20
13591;DHT22;6866;50.778;7.206;2023-05-07T10:45:14;24.40;64.40
13591;DHT22;6866;50.778;7.206;2023-05-07T10:50:31;24.20;63.50
13591;DHT22;6866;50.778;7.206;2023-05-07T10:53:21;24.20;66.00
13591;DHT22;6866;50.778;7.206;2023-05-07T10:58:44;24.00;65.00
13591;DHT22;6866;50.778;7.206;2023-05-07T11:01:09;23.70;64.00
13591;DHT22;6866;50.778;7.206;2023-05-07T11:04:15;23.80;64.80
13591;DHT22;6866;50.778;7.206;2023-05-07T11:15:12;23.80;62.80
13591;DHT22;6866;50.778;7.206;2023-05-07T11:17:57;23.80;62.30
13591;DHT22;6866;50.778;7.206;2023-05-07T11:20:46;23.90;62.70
13591;DHT22;6866;50.778;7.206;2023-05-07T11:26:07;23.70;58.70
13591;DHT22;6866;50.778;7.206;2023-05-07T11:28:41;23.40;62.70
13591;DHT22;6866;50.778;7.206;2023-05-07T11:31:07;23.40;60.50
13591;DHT22;6866;50.778;7.206;2023-05-07T11:33:34;23.50;60.20
13591;DHT22;6866;50.778;7.206;2023-05-07T11:36:00;23.40;61.40
13591;DHT22;6866;50.778;7.206;2023-05-07T11:38:29;23.40;64.00
13591;DHT22;6866;50.778;7.206;2023-05-07T11:40:56;23.60;61.00
13591;DHT22;6866;50.778;7.206;2023-05-07T11:43:22;23.80;60.20
13591;DHT22;6866;50.778;7.206;2023-05-07T11:45:48;24.00;60.70
13591;DHT22;6866;50.778;7.206;2023-05-07T11:48:15;23.90;58.90
13591;DHT22;6866;50.778;7.206;2023-05-07T11:53:26;23.70;58.80
13591;DHT22;6866;50.778;7.206;2023-05-07T11:55:52;23.70;60.40
13591;DHT22;6866;50.778;7.206;2023-05-07T11:58:21;23.80;59.80
13591;DHT22;6866;50.778;7.206;2023-05-07T12:00:51;23.60;60.10
13591;DHT22;6866;50.778;7.206;2023-05-07T12:03:17;23.60;60.50
13591;DHT22;6866;50.778;7.206;2023-05-07T12:05:47;23.50;59.00
13591;DHT22;6866;50.778;7.206;2023-05-07T12:08:20;23.40;59.10
13591;DHT22;6866;50.778;7.206;2023-05-07T12:10:48;23.30;61.30
13591;DHT22;6866;50.778;7.206;2023-05-07T12:13:18;23.30;59.30
13591;DHT22;6866;50.778;7.206;2023-05-07T12:15:44;23.20;57.90
13591;DHT22;6866;50.778;7.206;2023-05-07T12:18:13;23.10;58.00
13591;DHT22;6866;50.778;7.206;2023-05-07T12:20:39;23.00;60.00
13591;DHT22;6866;50.778;7.206;2023-05-07T12:23:05;22.90;59.30
13591;DHT22;6866;50.778;7.206;2023-05-07T12:25:41;22.90;57.70
13591;DHT22;6866;50.778;7.206;2023-05-07T12:28:15;22.70;58.00
13591;DHT22;6866;50.778;7.206;2023-05-07T12:30:46;22.70;59.60
13591;DHT22;6866;50.778;7.206;2023-05-07T12:33:16;22.60;57.20
13591;DHT22;6866;50.778;7.206;2023-05-07T12:35:44;22.50;61.00
13591;DHT22;6866;50.778;7.206;2023-05-07T12:38:14;22.50;57.40
13591;DHT22;6866;50.778;7.206;2023-05-07T12:43:07;22.20;60.80
13591;DHT22;6866;50.778;7.206;2023-05-07T12:45:40;22.00;61.00
13591;DHT22;6866;50.778;7.206;2023-05-07T12:48:06;22.00;61.30
13591;DHT22;6866;50.778;7.206;2023-05-07T12:50:32;22.00;62.10
13591;DHT22;6866;50.778;7.206;2023-05-07T12:52:59;22.10;62.10
13591;DHT22;6866;50.778;7.206;2023-05-07T12:55:24;22.00;62.20
13591;DHT22;6866;50.778;7.206;2023-05-07T12:57:51;21.90;61.60
13591;DHT22;6866;50.778;7.206;2023-05-07T13:00:31;21.80;61.90
13591;DHT22;6866;50.778;7.206;2023-05-07T13:02:58;21.60;62.30
13591;DHT22;6866;50.778;7.206;2023-05-07T13:05:24;21.60;63.80
13591;DHT22;6866;50.778;7.206;2023-05-07T13:07:56;21.70;65.70
13591;DHT22;6866;50.778;7.206;2023-05-07T13:10:22;21.70;66.30
13591;DHT22;6866;50.778;7.206;2023-05-07T13:12:49;21.60;65.70
13591;DHT22;6866;50.778;7.206;2023-05-07T13:15:14;21.70;66.70
13591;DHT22;6866;50.778;7.206;2023-05-07T13:17:40;21.60;68.00
13591;DHT22;6866;50.778;7.206;2023-05-07T13:20:06;21.80;68.10
13591;DHT22;6866;50.778;7.206;2023-05-07T13:22:33;21.90;67.60
13591;DHT22;6866;50.778;7.206;2023-05-07T13:24:59;21.90;68.50
13591;DHT22;6866;50.778;7.206;2023-05-07T13:27:24;22.20;68.30
13591;DHT22;6866;50.778;7.206;2023-05-07T13:29:50;22.10;68.40
13591;DHT22;6866;50.778;7.206;2023-05-07T13:32:16;22.20;67.50
13591;DHT22;6866;50.778;7.206;2023-05-07T13:34:41;22.30;65.80
13591;DHT22;6866;50.778;7.206;2023-05-07T13:37:07;22.40;66.70
13591;DHT22;6866;50.778;7.206;2023-05-07T13:39:33;22.50;66.70
13591;DHT22;6866;50.778;7.206;2023-05-07T13:41:59;22.70;67.30
13591;DHT22;6866;50.778;7.206;2023-05-07T13:44:26;22.80;64.20
13591;DHT22;6866;50.778;7.206;2023-05-07T13:46:51;22.80;63.40
13591;DHT22;6866;50.778;7.206;2023-05-07T13:49:17;22.80;63.10
13591;DHT22;6866;50.778;7.206;2023-05-07T13:51:42;22.90;63.50
13591;DHT22;6866;50.778;7.206;2023-05-07T13:54:08;23.00;63.70
13591;DHT22;6866;50.778;7.206;2023-05-07T13:56:33;23.10;62.00
13591;DHT22;6866;50.778;7.206;2023-05-07T13:58:59;23.10;61.70
13591;DHT22;6866;50.778;7.206;2023-05-07T14:01:25;23.00;62.40
13591;DHT22;6866;50.778;7.206;2023-05-07T14:03:50;23.30;60.40
13591;DHT22;6866;50.778;7.206;2023-05-07T14:06:16;23.40;60.40
13591;DHT22;6866;50.778;7.206;2023-05-07T14:08:41;23.60;58.00
13591;DHT22;6866;50.778;7.206;2023-05-07T14:11:07;23.40;58.30
13591;DHT22;6866;50.778;7.206;2023-05-07T14:13:32;23.50;58.60
13591;DHT22;6866;50.778;7.206;2023-05-07T14:15:59;23.50;59.80
13591;DHT22;6866;50.778;7.206;2023-05-07T14:18:26;23.40;57.40
13591;DHT22;6866;50.778;7.206;2023-05-07T14:20:51;23.30;60.00
13591;DHT22;6866;50.778;7.206;2023-05-07T14:23:17;23.30;61.20
13591;DHT22;6866;50.778;7.206;2023-05-07T14:25:44;23.20;62.80
13591;DHT22;6866;50.778;7.206;2023-05-07T14:28:11;23.10;64.20
13591;DHT22;6866;50.778;7.206;2023-05-07T14:30:36;23.00;65.10
13591;DHT22;6866;50.778;7.206;2023-05-07T14:33:02;22.80;66.40
13591;DHT22;6866;50.778;7.206;2023-05-07T14:35:28;22.70;67.90
13591;DHT22;6866;50.778;7.206;2023-05-07T14:37:53;22.60;67.60
13591;DHT22;6866;50.778;7.206;2023-05-07T14:40:19;22.50;68.20
13591;DHT22;6866;50.778;7.206;2023-05-07T14:42:44;22.40;68.80
13591;DHT22;6866;50.778;7.206;2023-05-07T14:45:10;22.20;69.40
13591;DHT22;6866;50.778;7.206;2023-05-07T14:47:36;22.20;68.10
13591;DHT22;6866;50.778;7.206;2023-05-07T14:50:01;22.10;69.80
13591;DHT22;6866;50.778;7.206;2023-05-07T14:52:27;22.10;69.10
13591;DHT22;6866;50.778;7.206;2023-05-07T14:54:52;22.10;69.20
13591;DHT22;6866;50.778;7.206;2023-05-07T14:57:18;22.10;69.70
13591;DHT22;6866;50.778;7.206;2023-05-07T14:59:45;22.10;70.10
13591;DHT22;6866;50.778;7.206;2023-05-07T15:02:11;21.90;74.60
13591;DHT22;6866;50.778;7.206;2023-05-07T15:04:37;21.90;76.00
13591;DHT22;6866;50.778;7.206;2023-05-07T15:07:04;21.80;77.00
13591;DHT22;6866;50.778;7.206;2023-05-07T15:09:30;21.70;78.70
13591;DHT22;6866;50.778;7.206;2023-05-07T15:11:56;21.70;79.20
13591;DHT22;6866;50.778;7.206;2023-05-07T15:14:21;21.70;80.90
13591;DHT22;6866;50.778;7.206;2023-05-07T15:16:48;21.70;82.40
13591;DHT22;6866;50.778;7.206;2023-05-07T15:19:13;21.70;84.60
13591;DHT22;6866;50.778;7.206;2023-05-07T15:21:40;21.60;85.30
13591;DHT22;6866;50.778;7.206;2023-05-07T15:24:06;21.50;89.80
13591;DHT22;6866;50.778;7.206;2023-05-07T15:26:32;21.40;90.90
13591;DHT22;6866;50.778;7.206;2023-05-07T15:28:57;21.40;91.90
13591;DHT22;6866;50.778;7.206;2023-05-07T15:31:24;21.30;93.20
13591;DHT22;6866;50.778;7.206;2023-05-07T15:33:50;21.20;94.60
13591;DHT22;6866;50.778;7.206;2023-05-07T15:36:17;21.00;95.10
13591;DHT22;6866;50.778;7.206;2023-05-07T15:38:43;20.70;97.50
13591;DHT22;6866;50.778;7.206;2023-05-07T15:41:08;20.60;99.70
13591;DHT22;6866;50.778;7.206;2023-05-07T15:43:46;20.40;99.90
13591;DHT22;6866;50.778;7.206;2023-05-07T15:46:12;20.20;99.90
13591;DHT22;6866;50.778;7.206;2023-05-07T15:48:38;19.80;99.90
13591;DHT22;6866;50.778;7.206;2023-05-07T15:51:03;19.40;99.90
13591;DHT22;6866;50.778;7.206;2023-05-07T15:53:30;19.40;99.90
13591;DHT22;6866;50.778;7.206;2023-05-07T15:55:55;19.40;99.90
13591;DHT22;6866;50.778;7.206;2023-05-07T15:58:21;19.40;99.90
13591;DHT22;6866;50.778;7.206;2023-05-07T16:00:46;19.30;99.90
13591;DHT22;6866;50.778;7.206;2023-05-07T16:03:12;19.10;99.90
13591;DHT22;6866;50.778;7.206;2023-05-07T16:05:38;18.90;99.90
13591;DHT22;6866;50.778;7.206;2023-05-07T16:08:03;18.90;99.90
13591;DHT22;6866;50.778;7.206;2023-05-07T16:10:29;18.90;99.90